AZ49 weather

Aileron Orchards Airport
Dolan Springs, Arizona, United States

Public forecast

Using degrees Fahrenheit for public forecast. Weather courtesy of forecast.io.

METAR (pilot weather report)

Closest report is Kingman Airport, 33.2 nm (61.4 km) SSE. Retrieved 2019/03/23 13:51 UTC (34 minutes ago):

KIGM 231351Z AUTO 14011KT 10SM CLR 07/00 A3010 RMK AO2 SLP159 T00670000

TAF (pilot weather forecast)

Closest forecast is Laughlin Bullhead International Airport, 43.3 nm (80.2 km) SSW. Retrieved 2019/03/23 12:22 UTC (2 hours ago):

TAF KIFP 231120Z 2312/2412 VRB05KT P6SM BKN200 FM231800 18007KT P6SM BKN200 FM232000 19010G20KT P6SM BKN200 FM240200 17007KT P6SM BKN200